createdAt,value
2018-06-13T00:00:58.590Z,90.40
2018-06-13T00:03:30.827Z,90.00
2018-06-13T00:06:01.267Z,89.10
2018-06-13T00:08:31.667Z,90.30
2018-06-13T00:11:01.947Z,90.50
2018-06-13T00:13:32.780Z,90.50
2018-06-13T00:16:03.103Z,90.20
2018-06-13T00:18:33.108Z,89.80
2018-06-13T00:21:07.988Z,90.30
2018-06-13T00:23:38.438Z,86.40
2018-06-13T00:26:11.547Z,87.50
2018-06-13T00:28:42.716Z,87.00
2018-06-13T00:31:13.105Z,87.90
2018-06-13T00:36:15.066Z,88.10
2018-06-13T00:38:47.443Z,88.70
2018-06-13T00:41:19.441Z,89.70
2018-06-13T00:43:49.839Z,89.40
2018-06-13T00:48:50.400Z,87.50
2018-06-13T00:51:20.954Z,85.70
2018-06-13T00:53:50.865Z,87.50
2018-06-13T00:56:31.419Z,87.40
2018-06-13T00:59:02.906Z,87.10
2018-06-13T01:01:34.192Z,86.50
2018-06-13T01:04:04.264Z,86.30
2018-06-13T01:06:34.644Z,86.20
2018-06-13T01:09:07.222Z,87.30
2018-06-13T01:11:38.645Z,88.00
2018-06-13T01:14:09.198Z,86.70
2018-06-13T01:16:39.309Z,86.60
2018-06-13T01:19:09.544Z,85.60
2018-06-13T01:24:09.819Z,85.10
2018-06-13T01:26:39.860Z,85.90
2018-06-13T01:29:11.752Z,88.20
2018-06-13T01:31:41.830Z,87.90
2018-06-13T01:34:15.541Z,89.00
2018-06-13T01:36:46.692Z,88.00
2018-06-13T01:39:16.769Z,90.10
2018-06-13T01:41:47.076Z,90.10
2018-06-13T01:44:19.089Z,89.40
2018-06-13T01:46:50.219Z,89.40
2018-06-13T01:49:21.753Z,89.40
2018-06-13T01:51:51.962Z,86.90
2018-06-13T01:56:52.725Z,88.60
2018-06-13T01:59:22.502Z,88.10
2018-06-13T02:01:53.990Z,88.00
2018-06-13T02:04:24.800Z,87.40
2018-06-13T02:06:54.841Z,86.20
2018-06-13T02:09:25.278Z,85.40
2018-06-13T02:11:55.088Z,85.40
2018-06-13T02:14:26.317Z,84.70
2018-06-13T02:19:26.152Z,83.80
2018-06-13T02:24:26.524Z,86.10
2018-06-13T02:26:57.034Z,85.20
2018-06-13T02:29:27.355Z,83.90
2018-06-13T02:31:57.337Z,83.80
2018-06-13T02:34:27.224Z,82.50
2018-06-13T02:36:58.400Z,82.10
2018-06-13T02:39:28.432Z,84.10
2018-06-13T02:41:58.350Z,83.30
2018-06-13T02:44:29.425Z,82.20
2018-06-13T02:46:59.777Z,82.00
2018-06-13T02:49:29.750Z,81.30
2018-06-13T02:51:59.735Z,81.80
2018-06-13T02:54:29.944Z,81.40
2018-06-13T02:57:02.759Z,82.80
2018-06-13T02:59:33.182Z,82.80
2018-06-13T03:04:35.652Z,82.20
2018-06-13T03:07:06.089Z,81.50
2018-06-13T03:09:36.092Z,80.60
2018-06-13T03:12:07.160Z,83.10
2018-06-13T03:14:37.359Z,84.60
2018-06-13T03:17:09.825Z,85.20
2018-06-13T03:19:43.275Z,82.70
2018-06-13T03:22:13.686Z,82.50
2018-06-13T03:24:43.873Z,82.50
2018-06-13T03:27:13.910Z,83.80
2018-06-13T03:32:13.555Z,83.90
2018-06-13T03:34:45.450Z,83.90
2018-06-13T03:37:15.911Z,85.00
2018-06-13T03:39:45.910Z,86.40
2018-06-13T03:42:15.904Z,88.70
2018-06-13T03:44:46.253Z,88.20
2018-06-13T03:47:16.332Z,86.80
2018-06-13T03:49:46.264Z,86.20
2018-06-13T03:52:16.475Z,85.50
2018-06-13T03:54:46.398Z,84.60
2018-06-13T03:57:16.763Z,84.70
2018-06-13T03:59:47.048Z,85.60
2018-06-13T04:02:17.013Z,86.20
2018-06-13T04:04:46.872Z,84.10
2018-06-13T04:07:17.298Z,82.80
2018-06-13T04:51:54.381Z,82.60
2018-06-13T04:54:26.112Z,89.00
2018-06-13T04:56:56.589Z,88.50
2018-06-13T04:59:27.372Z,88.60
2018-06-13T05:02:07.011Z,89.70
2018-06-13T05:04:37.633Z,89.20
2018-06-13T05:07:07.921Z,88.20
2018-06-13T05:09:39.726Z,90.00
2018-06-13T05:12:11.446Z,88.10
2018-06-13T05:14:42.046Z,88.20
2018-06-13T05:17:21.405Z,89.50
2018-06-13T05:19:53.180Z,90.20
2018-06-13T05:22:24.139Z,90.20
2018-06-13T05:25:04.976Z,88.80
2018-06-13T05:27:36.195Z,89.20
2018-06-13T05:30:07.192Z,89.60
2018-06-13T05:32:37.310Z,88.50
2018-06-13T05:40:08.060Z,87.30
2018-06-13T05:42:47.296Z,86.70
2018-06-13T05:45:17.715Z,86.60
2018-06-13T05:47:49.334Z,85.00
2018-06-13T05:50:21.209Z,85.10
2018-06-13T05:52:52.198Z,87.10
2018-06-13T05:55:31.969Z,86.30
2018-06-13T05:58:10.558Z,85.90
2018-06-13T06:03:35.612Z,83.30
2018-06-13T06:06:06.869Z,83.10
2018-06-13T06:08:37.992Z,83.80
2018-06-13T06:11:10.851Z,81.20
2018-06-13T06:16:14.135Z,83.20
2018-06-13T06:18:46.344Z,81.40
2018-06-13T06:21:20.043Z,80.10
2018-06-13T06:23:53.755Z,79.90
2018-06-13T06:26:26.726Z,80.00
2018-06-13T06:29:00.069Z,78.90
2018-06-13T06:31:30.598Z,77.70
2018-06-13T06:34:04.120Z,77.70
2018-06-13T06:36:35.340Z,76.70
2018-06-13T06:39:09.728Z,76.00
2018-06-13T06:41:46.126Z,76.60
2018-06-13T06:44:17.900Z,74.60
2018-06-13T06:46:47.918Z,72.30
2018-06-13T06:49:19.719Z,72.60
2018-06-13T06:54:28.698Z,72.00
2018-06-13T06:56:59.530Z,71.40
2018-06-13T06:59:34.213Z,70.60
2018-06-13T07:02:04.635Z,70.20
2018-06-13T07:07:06.773Z,71.40
2018-06-13T07:09:38.786Z,71.70
2018-06-13T07:12:12.972Z,72.70
2018-06-13T07:14:53.408Z,72.30
2018-06-13T07:17:24.194Z,71.40
2018-06-13T07:19:55.267Z,72.60
2018-06-13T07:22:41.085Z,72.20
2018-06-13T07:25:11.697Z,71.80
2018-06-13T07:27:42.208Z,71.00
2018-06-13T07:30:13.627Z,70.30
2018-06-13T07:32:44.027Z,70.30
2018-06-13T07:35:14.212Z,69.30
2018-06-13T07:37:44.332Z,69.80
2018-06-13T07:40:16.586Z,68.50
2018-06-13T07:42:48.896Z,68.80
2018-06-13T07:45:22.889Z,67.90
2018-06-13T07:47:56.166Z,68.60
2018-06-13T07:50:28.507Z,67.60
2018-06-13T07:53:04.488Z,68.30
2018-06-13T07:55:35.970Z,68.50
2018-06-13T07:58:06.199Z,67.80
2018-06-13T08:00:37.307Z,67.00
2018-06-13T08:03:09.164Z,67.80
2018-06-13T08:08:09.287Z,70.00
2018-06-13T08:10:40.815Z,69.70
2018-06-13T08:13:11.647Z,69.10
2018-06-13T08:15:44.705Z,69.00
2018-06-13T08:18:18.407Z,69.40
2018-06-13T08:20:55.188Z,68.70
2018-06-13T08:23:27.229Z,68.30
2018-06-13T08:26:00.150Z,68.30
2018-06-13T08:28:38.101Z,68.70
2018-06-13T08:31:16.549Z,70.00
2018-06-13T08:33:48.876Z,68.90
2018-06-13T08:36:22.462Z,71.10
2018-06-13T08:38:54.507Z,72.20
2018-06-13T08:41:25.701Z,71.10
2018-06-13T08:46:28.156Z,71.10
2018-06-13T08:48:59.197Z,70.80
2018-06-13T08:51:30.176Z,71.30
2018-06-13T08:54:00.684Z,70.30
2018-06-13T08:56:31.590Z,70.80
2018-06-13T08:59:02.068Z,70.60
2018-06-13T09:09:23.957Z,71.10
2018-06-13T09:14:26.437Z,72.50
2018-06-13T09:16:57.882Z,72.60
2018-06-13T09:22:03.171Z,74.80
2018-06-13T09:24:36.652Z,74.00
2018-06-13T09:27:08.239Z,72.50
2018-06-13T09:29:39.767Z,73.90
2018-06-13T09:32:11.406Z,72.90
2018-06-13T09:34:41.759Z,71.90
2018-06-13T09:37:13.020Z,73.50
2018-06-13T09:39:44.222Z,73.90
2018-06-13T09:42:15.445Z,74.40
2018-06-13T09:44:47.701Z,73.40
2018-06-13T09:47:23.457Z,72.00
2018-06-13T09:49:48.276Z,71.30
2018-06-13T09:52:19.386Z,70.10
2018-06-13T09:54:49.517Z,69.00
2018-06-13T09:57:20.557Z,71.00
2018-06-13T09:59:57.376Z,69.80
2018-06-13T10:02:40.486Z,68.30
2018-06-13T10:05:15.124Z,68.70
2018-06-13T10:10:17.830Z,68.10
2018-06-13T10:15:19.403Z,70.80
2018-06-13T10:17:52.163Z,70.60
2018-06-13T10:20:22.520Z,69.70
2018-06-13T10:22:55.646Z,71.40
2018-06-13T10:25:28.861Z,72.80
2018-06-13T10:28:00.983Z,74.30
2018-06-13T10:30:32.026Z,73.20
2018-06-13T10:33:02.246Z,74.20
2018-06-13T10:35:33.617Z,74.30
2018-06-13T10:38:04.293Z,73.90
2018-06-13T10:40:36.690Z,74.20
2018-06-13T10:43:09.437Z,71.20
2018-06-13T10:45:41.223Z,69.80
2018-06-13T10:48:12.224Z,67.10
2018-06-13T10:50:46.721Z,66.40
2018-06-13T10:53:19.541Z,68.20
2018-06-13T10:55:52.558Z,68.90
2018-06-13T10:58:28.356Z,68.20
2018-06-13T11:03:34.507Z,69.00
2018-06-13T11:06:09.303Z,69.30
2018-06-13T11:08:41.005Z,66.60
2018-06-13T11:11:14.017Z,65.60
2018-06-13T11:13:49.587Z,65.40
2018-06-13T11:16:20.706Z,65.70
2018-06-13T11:18:51.086Z,63.30
2018-06-13T11:21:22.719Z,62.90
2018-06-13T11:23:55.271Z,60.90
2018-06-13T11:26:26.260Z,61.40
2018-06-13T11:31:38.051Z,64.70
2018-06-13T11:34:13.096Z,64.70
2018-06-13T11:36:47.725Z,65.70
2018-06-13T11:39:21.433Z,67.30
2018-06-13T11:41:57.099Z,67.60
2018-06-13T11:44:32.439Z,67.10
2018-06-13T11:47:07.552Z,67.00
2018-06-13T11:52:33.277Z,67.50
2018-06-13T11:55:17.739Z,71.30
2018-06-13T11:58:04.120Z,70.30
2018-06-13T12:03:11.389Z,68.00
2018-06-13T12:05:51.362Z,68.80
2018-06-13T12:08:28.451Z,67.30
2018-06-13T12:11:06.632Z,66.60
2018-06-13T12:13:43.605Z,65.00
2018-06-13T12:16:17.988Z,64.10
2018-06-13T12:18:54.177Z,62.50
2018-06-13T12:21:45.384Z,61.20
2018-06-13T12:24:20.426Z,62.20
2018-06-13T12:27:05.977Z,62.60
2018-06-13T12:32:12.567Z,62.00
2018-06-13T12:37:19.666Z,61.00
2018-06-13T12:39:53.386Z,60.20
2018-06-13T12:42:25.874Z,59.40
2018-06-13T12:45:00.013Z,58.70
2018-06-13T12:47:31.724Z,58.40
2018-06-13T12:50:04.062Z,57.60
2018-06-13T12:52:38.876Z,58.50
2018-06-13T12:55:15.714Z,59.60
2018-06-13T12:57:49.830Z,59.90
2018-06-13T13:00:40.605Z,59.60
2018-06-13T13:03:16.854Z,60.20
2018-06-13T13:05:55.453Z,57.90
2018-06-13T13:08:29.515Z,57.70
2018-06-13T13:11:06.855Z,58.00
2018-06-13T13:13:49.245Z,58.40
2018-06-13T13:16:22.554Z,58.80
2018-06-13T13:18:57.549Z,58.40
2018-06-13T13:21:29.304Z,58.60
2018-06-13T13:24:03.683Z,57.40
2018-06-13T13:26:38.188Z,58.80
2018-06-13T13:29:10.536Z,58.30
2018-06-13T13:31:45.542Z,58.70
2018-06-13T13:34:16.380Z,59.20
2018-06-13T13:36:50.070Z,59.20
2018-06-13T13:39:35.629Z,59.80
2018-06-13T13:42:11.070Z,60.90
2018-06-13T13:44:47.014Z,62.60
2018-06-13T13:47:18.354Z,63.20
2018-06-13T13:49:52.922Z,63.20
2018-06-13T13:52:24.296Z,62.60
2018-06-13T13:54:59.711Z,63.30
2018-06-13T13:57:30.396Z,61.90
2018-06-13T14:00:02.097Z,63.10
2018-06-13T14:02:37.617Z,62.00
2018-06-13T14:05:18.839Z,61.90
2018-06-13T14:07:55.859Z,59.50
2018-06-13T14:10:37.534Z,59.90
2018-06-13T14:13:12.411Z,59.40
2018-06-13T14:15:51.126Z,59.40
2018-06-13T14:18:27.898Z,58.40
2018-06-13T14:21:08.703Z,58.90
2018-06-13T14:23:42.497Z,59.40
2018-06-13T14:26:14.456Z,59.80
2018-06-13T14:28:48.016Z,59.80
2018-06-13T14:31:19.603Z,59.00
2018-06-13T14:33:53.361Z,60.10
2018-06-13T14:36:27.490Z,58.90
2018-06-13T14:39:00.621Z,59.40
2018-06-13T14:41:37.840Z,59.40
2018-06-13T14:44:11.311Z,59.70
2018-06-13T14:46:44.416Z,59.20
2018-06-13T14:49:16.612Z,57.70
2018-06-13T14:51:54.036Z,57.80
2018-06-13T14:54:28.096Z,57.10
2018-06-13T14:57:01.431Z,58.00
2018-06-13T14:59:35.047Z,57.60
2018-06-13T15:02:12.080Z,56.80
2018-06-13T15:04:51.797Z,56.10
2018-06-13T15:07:23.795Z,55.10
2018-06-13T15:09:57.067Z,55.40
2018-06-13T15:12:37.413Z,55.90
2018-06-13T15:15:21.351Z,55.70
2018-06-13T15:17:54.569Z,56.30
2018-06-13T15:20:37.765Z,56.60
2018-06-13T15:23:16.296Z,56.00
2018-06-13T15:25:48.793Z,56.40
2018-06-13T15:28:25.498Z,58.00
2018-06-13T15:31:09.462Z,56.20
2018-06-13T15:33:43.089Z,55.30
2018-06-13T15:36:14.049Z,57.10
2018-06-13T15:38:47.140Z,57.30
2018-06-13T15:41:22.128Z,57.30
2018-06-13T15:43:57.223Z,57.20
2018-06-13T15:46:29.874Z,57.70
2018-06-13T15:49:01.596Z,58.30
2018-06-13T15:51:33.557Z,58.50
2018-06-13T15:54:09.481Z,59.70
2018-06-13T15:56:50.498Z,60.10
2018-06-13T15:59:27.722Z,60.30
2018-06-13T16:01:59.217Z,60.20
2018-06-13T16:04:30.538Z,60.80
2018-06-13T16:07:10.177Z,60.20
2018-06-13T16:09:43.533Z,60.30
2018-06-13T16:12:19.893Z,61.20
2018-06-13T16:14:55.220Z,61.60
2018-06-13T16:17:27.399Z,60.30
2018-06-13T16:20:03.597Z,60.50
2018-06-13T16:22:34.629Z,60.60
2018-06-13T16:25:13.326Z,60.60
2018-06-13T16:27:50.747Z,60.80
2018-06-13T16:30:26.583Z,60.50
2018-06-13T16:33:03.904Z,60.70
2018-06-13T16:35:37.493Z,60.70
2018-06-13T16:38:11.848Z,60.70
2018-06-13T16:40:51.328Z,59.90
2018-06-13T16:43:25.992Z,60.30
2018-06-13T16:48:48.689Z,61.50
2018-06-13T16:51:38.257Z,60.80
2018-06-13T16:54:18.771Z,60.00
2018-06-13T16:56:59.489Z,60.70
2018-06-13T16:59:45.647Z,61.40
2018-06-13T17:02:23.424Z,59.90
2018-06-13T17:04:57.887Z,60.80
2018-06-13T17:07:35.510Z,59.90
2018-06-13T17:10:12.730Z,59.30
2018-06-13T17:12:47.879Z,61.40
2018-06-13T17:15:23.483Z,60.90
2018-06-13T17:17:57.692Z,60.30
2018-06-13T17:20:36.315Z,60.60
2018-06-13T17:23:12.560Z,60.10
2018-06-13T17:25:48.046Z,60.50
2018-06-13T17:28:27.073Z,60.30
2018-06-13T17:31:04.364Z,61.00
2018-06-13T17:33:38.259Z,61.40
2018-06-13T17:36:13.435Z,61.30
2018-06-13T17:38:49.586Z,61.40
2018-06-13T17:41:24.979Z,62.50
2018-06-13T17:44:01.037Z,62.40
2018-06-13T17:46:35.633Z,63.20
2018-06-13T17:49:14.673Z,64.50
2018-06-13T17:51:49.644Z,64.80
2018-06-13T17:54:25.666Z,64.80
2018-06-13T17:57:00.518Z,64.00
2018-06-13T17:59:34.974Z,62.30
2018-06-13T18:02:11.171Z,62.00
2018-06-13T18:04:47.362Z,62.00
2018-06-13T18:07:26.213Z,61.90
2018-06-13T18:10:03.526Z,62.10
2018-06-13T18:12:36.998Z,61.20
2018-06-13T18:15:32.635Z,61.90
2018-06-13T18:18:03.730Z,61.80
2018-06-13T18:20:34.788Z,60.80
2018-06-13T18:23:09.144Z,60.80
2018-06-13T18:25:42.288Z,60.70
2018-06-13T18:28:17.539Z,61.80
2018-06-13T18:30:49.771Z,59.30
2018-06-13T18:33:23.048Z,59.90
2018-06-13T18:35:57.778Z,59.50
2018-06-13T18:38:32.552Z,59.30
2018-06-13T18:41:08.620Z,58.70
2018-06-13T18:43:44.663Z,58.60
2018-06-13T18:46:18.201Z,58.60
2018-06-13T18:48:51.871Z,58.60
2018-06-13T18:51:32.902Z,59.50
2018-06-13T18:54:10.945Z,58.90
2018-06-13T18:56:45.938Z,59.10
2018-06-13T18:59:22.569Z,59.30
2018-06-13T19:01:56.636Z,59.60
2018-06-13T19:04:31.491Z,61.10
2018-06-13T19:07:08.638Z,60.70
2018-06-13T19:09:48.518Z,60.80
2018-06-13T19:12:26.661Z,61.20
2018-06-13T19:15:01.540Z,62.70
2018-06-13T19:18:04.944Z,64.40
2018-06-13T19:20:39.519Z,67.40
2018-06-13T19:23:17.664Z,65.60
2018-06-13T19:25:52.315Z,64.50
2018-06-13T19:28:37.166Z,64.40
2018-06-13T19:31:10.448Z,64.50
2018-06-13T19:33:45.443Z,65.00
2018-06-13T19:36:21.427Z,67.20
2018-06-13T19:38:53.189Z,66.80
2018-06-13T19:41:28.620Z,67.20
2018-06-13T19:44:01.048Z,68.30
2018-06-13T19:46:38.618Z,68.30
2018-06-13T19:51:53.066Z,69.10
2018-06-13T19:54:28.751Z,69.30
2018-06-13T19:57:00.512Z,68.90
2018-06-13T19:59:33.465Z,67.70
2018-06-13T20:02:04.482Z,67.50
2018-06-13T20:04:40.162Z,67.20
2018-06-13T20:07:12.354Z,67.50
2018-06-13T20:09:42.535Z,67.60
2018-06-13T20:12:29.835Z,68.40
2018-06-13T20:15:09.321Z,69.00
2018-06-13T20:17:46.850Z,68.80
2018-06-13T20:20:24.271Z,68.90
2018-06-13T20:22:59.531Z,69.80
2018-06-13T20:25:39.024Z,69.40
2018-06-13T20:28:19.570Z,73.10
2018-06-13T20:30:57.319Z,73.00
2018-06-13T20:33:30.448Z,72.60
2018-06-13T20:36:19.445Z,72.40
2018-06-13T20:38:54.647Z,72.10
2018-06-13T20:41:35.604Z,70.90
2018-06-13T20:44:08.429Z,70.50
2018-06-13T20:46:44.927Z,69.70
2018-06-13T20:49:17.935Z,70.30
2018-06-13T20:51:51.496Z,71.20
2018-06-13T20:54:28.439Z,70.70
2018-06-13T20:57:01.297Z,70.50
2018-06-13T20:59:34.902Z,70.00
2018-06-13T21:04:47.111Z,69.70
2018-06-13T21:07:24.749Z,69.80
2018-06-13T21:09:57.928Z,70.10
2018-06-13T21:12:31.846Z,69.80
2018-06-13T21:15:04.632Z,69.90
2018-06-13T21:17:44.148Z,69.80
2018-06-13T21:20:14.735Z,69.50
2018-06-13T21:22:47.776Z,69.50
2018-06-13T21:28:10.909Z,70.30
2018-06-13T21:30:43.347Z,70.20
2018-06-13T21:33:18.188Z,70.10
2018-06-13T21:35:50.737Z,70.20
2018-06-13T21:38:21.002Z,70.20
2018-06-13T21:40:53.728Z,69.80
2018-06-13T21:43:26.009Z,70.60
2018-06-13T21:46:03.320Z,69.80
2018-06-13T21:48:41.316Z,70.30
2018-06-13T21:51:13.532Z,70.30
2018-06-13T21:53:50.741Z,70.30
2018-06-13T21:56:21.847Z,70.30
2018-06-13T21:58:56.977Z,70.10
2018-06-13T22:01:32.907Z,69.90
2018-06-13T22:04:10.050Z,70.00
2018-06-13T22:06:45.518Z,69.80
2018-06-13T22:09:15.901Z,69.60
2018-06-13T22:11:52.547Z,69.30
2018-06-13T22:14:24.352Z,69.60
2018-06-13T22:16:58.669Z,69.50
2018-06-13T22:19:29.319Z,69.60
2018-06-13T22:22:00.530Z,69.60
2018-06-13T22:24:38.001Z,69.80
2018-06-13T22:27:14.567Z,69.40
2018-06-13T22:29:46.508Z,69.10
2018-06-13T22:32:20.472Z,70.10
2018-06-13T22:34:51.914Z,69.10
2018-06-13T22:37:22.638Z,69.00
2018-06-13T22:39:54.393Z,69.10
2018-06-13T22:42:24.450Z,69.10
2018-06-13T22:44:54.975Z,69.20
2018-06-13T22:47:25.110Z,69.40
2018-06-13T22:50:02.263Z,69.10
2018-06-13T22:52:34.265Z,68.80
2018-06-13T22:55:06.044Z,68.80
2018-06-13T22:57:36.706Z,69.30
2018-06-13T23:00:09.629Z,69.10
2018-06-13T23:02:43.177Z,69.50
2018-06-13T23:05:16.776Z,69.20
2018-06-13T23:07:48.164Z,69.40
2018-06-13T23:10:19.420Z,69.50
2018-06-13T23:12:51.016Z,69.30
2018-06-13T23:15:22.617Z,69.40
2018-06-13T23:17:53.210Z,68.00
2018-06-13T23:20:26.057Z,69.90
2018-06-13T23:22:58.231Z,71.40
2018-06-13T23:25:33.075Z,70.00
2018-06-13T23:28:04.601Z,70.30
2018-06-13T23:30:37.630Z,70.30
2018-06-13T23:33:08.263Z,71.70
2018-06-13T23:35:40.450Z,70.00
2018-06-13T23:38:17.026Z,69.70
2018-06-13T23:40:54.091Z,69.40
2018-06-13T23:43:25.192Z,69.30
2018-06-13T23:45:57.565Z,68.90
2018-06-13T23:48:28.929Z,68.90
2018-06-13T23:50:59.771Z,68.90
2018-06-13T23:53:30.852Z,69.10
2018-06-13T23:56:01.363Z,67.10
2018-06-13T23:58:31.625Z,69.00
